sensor_id;sensor_type;location;lat;lon;timestamp;temperature;humidity
20459;DHT22;10388;52.314;7.938;2022-12-10T00:01:52;-0.40;99.90
20459;DHT22;10388;52.314;7.938;2022-12-10T00:04:23;-0.50;99.90
20459;DHT22;10388;52.314;7.938;2022-12-10T00:06:53;-0.50;99.90
20459;DHT22;10388;52.314;7.938;2022-12-10T00:09:24;-0.50;99.90
20459;DHT22;10388;52.314;7.938;2022-12-10T00:11:54;-0.60;99.90
20459;DHT22;10388;52.314;7.938;2022-12-10T00:14:25;-0.60;99.90
20459;DHT22;10388;52.314;7.938;2022-12-10T00:16:55;-0.60;99.90
20459;DHT22;10388;52.314;7.938;2022-12-10T00:19:26;-0.60;99.90
20459;DHT22;10388;52.314;7.938;2022-12-10T00:21:56;-0.60;99.90
20459;DHT22;10388;52.314;7.938;2022-12-10T00:24:27;-0.60;99.90
20459;DHT22;10388;52.314;7.938;2022-12-10T00:26:57;-0.60;99.90
20459;DHT22;10388;52.314;7.938;2022-12-10T00:29:28;-0.60;99.90
20459;DHT22;10388;52.314;7.938;2022-12-10T00:31:58;-0.60;99.90
20459;DHT22;10388;52.314;7.938;2022-12-10T00:34:29;-0.60;99.90
20459;DHT22;10388;52.314;7.938;2022-12-10T00:36:59;-0.60;99.90
20459;DHT22;10388;52.314;7.938;2022-12-10T00:39:30;-0.60;99.90
20459;DHT22;10388;52.314;7.938;2022-12-10T00:42:01;-0.60;99.90
20459;DHT22;10388;52.314;7.938;2022-12-10T00:44:32;-0.60;99.90
20459;DHT22;10388;52.314;7.938;2022-12-10T00:47:02;-0.60;99.90
20459;DHT22;10388;52.314;7.938;2022-12-10T00:49:33;-0.60;99.90
20459;DHT22;10388;52.314;7.938;2022-12-10T00:52:03;-0.60;99.90
20459;DHT22;10388;52.314;7.938;2022-12-10T00:54:34;-0.50;99.90
20459;DHT22;10388;52.314;7.938;2022-12-10T00:57:04;-0.50;99.90
20459;DHT22;10388;52.314;7.938;2022-12-10T00:59:35;-0.50;99.90
20459;DHT22;10388;52.314;7.938;2022-12-10T04:06:31;-0.20;99.90
20459;DHT22;10388;52.314;7.938;2022-12-10T04:09:01;-0.20;99.90
20459;DHT22;10388;52.314;7.938;2022-12-10T04:11:32;-0.20;99.90
20459;DHT22;10388;52.314;7.938;2022-12-10T04:14:03;-0.20;99.90
20459;DHT22;10388;52.314;7.938;2022-12-10T04:16:52;-0.20;99.90
20459;DHT22;10388;52.314;7.938;2022-12-10T04:19:23;-0.10;99.90
20459;DHT22;10388;52.314;7.938;2022-12-10T04:21:53;-0.10;99.90
20459;DHT22;10388;52.314;7.938;2022-12-10T04:24:45;-0.10;99.90
20459;DHT22;10388;52.314;7.938;2022-12-10T04:27:39;-0.10;99.90
20459;DHT22;10388;52.314;7.938;2022-12-10T04:30:11;-0.10;99.90
20459;DHT22;10388;52.314;7.938;2022-12-10T04:32:43;-0.10;99.90
20459;DHT22;10388;52.314;7.938;2022-12-10T04:35:14;-0.10;99.90
20459;DHT22;10388;52.314;7.938;2022-12-10T04:37:44;-0.10;99.90
20459;DHT22;10388;52.314;7.938;2022-12-10T04:40:15;-0.10;99.90
20459;DHT22;10388;52.314;7.938;2022-12-10T04:42:45;-0.10;99.90
20459;DHT22;10388;52.314;7.938;2022-12-10T04:45:16;-0.10;99.90
20459;DHT22;10388;52.314;7.938;2022-12-10T04:47:46;-0.10;99.90
20459;DHT22;10388;52.314;7.938;2022-12-10T04:50:17;-0.10;99.90
20459;DHT22;10388;52.314;7.938;2022-12-10T04:52:48;-0.20;99.90
20459;DHT22;10388;52.314;7.938;2022-12-10T04:55:19;-0.20;99.90
20459;DHT22;10388;52.314;7.938;2022-12-10T04:57:49;-0.10;99.90
20459;DHT22;10388;52.314;7.938;2022-12-10T05:00:20;-0.10;99.90
20459;DHT22;10388;52.314;7.938;2022-12-10T05:02:50;-0.10;99.90
20459;DHT22;10388;52.314;7.938;2022-12-10T05:05:21;-0.10;99.90
20459;DHT22;10388;52.314;7.938;2022-12-10T05:07:51;-0.10;99.90
20459;DHT22;10388;52.314;7.938;2022-12-10T05:10:22;-0.10;99.90
20459;DHT22;10388;52.314;7.938;2022-12-10T05:12:52;-0.20;99.90
20459;DHT22;10388;52.314;7.938;2022-12-10T05:15:23;-0.20;99.90
20459;DHT22;10388;52.314;7.938;2022-12-10T05:17:53;-0.20;99.90
20459;DHT22;10388;52.314;7.938;2022-12-10T05:20:24;-0.20;99.90
20459;DHT22;10388;52.314;7.938;2022-12-10T05:22:54;-0.20;99.90
20459;DHT22;10388;52.314;7.938;2022-12-10T05:25:43;-0.20;99.90
20459;DHT22;10388;52.314;7.938;2022-12-10T05:28:23;-0.20;99.90
20459;DHT22;10388;52.314;7.938;2022-12-10T05:30:53;-0.30;99.90
20459;DHT22;10388;52.314;7.938;2022-12-10T05:33:24;-0.30;99.90
20459;DHT22;10388;52.314;7.938;2022-12-10T05:36:00;-0.20;99.90
20459;DHT22;10388;52.314;7.938;2022-12-10T05:38:33;-0.20;99.90
20459;DHT22;10388;52.314;7.938;2022-12-10T05:41:05;-0.20;99.90
20459;DHT22;10388;52.314;7.938;2022-12-10T05:43:36;-0.20;99.90
20459;DHT22;10388;52.314;7.938;2022-12-10T05:46:11;-0.30;99.90
20459;DHT22;10388;52.314;7.938;2022-12-10T05:48:41;-0.20;99.90
20459;DHT22;10388;52.314;7.938;2022-12-10T05:51:20;-0.20;99.90
20459;DHT22;10388;52.314;7.938;2022-12-10T05:53:51;-0.20;99.90
20459;DHT22;10388;52.314;7.938;2022-12-10T05:56:24;-0.20;99.90
20459;DHT22;10388;52.314;7.938;2022-12-10T05:58:58;-0.20;99.90
20459;DHT22;10388;52.314;7.938;2022-12-10T06:01:32;-0.20;99.90
20459;DHT22;10388;52.314;7.938;2022-12-10T06:04:04;-0.20;99.90
20459;DHT22;10388;52.314;7.938;2022-12-10T06:06:37;-0.30;99.90
20459;DHT22;10388;52.314;7.938;2022-12-10T06:09:12;-0.30;99.90
20459;DHT22;10388;52.314;7.938;2022-12-10T06:11:43;-0.30;99.90
20459;DHT22;10388;52.314;7.938;2022-12-10T06:14:13;-0.30;99.90
20459;DHT22;10388;52.314;7.938;2022-12-10T06:16:44;-0.30;99.90
20459;DHT22;10388;52.314;7.938;2022-12-10T06:19:14;-0.40;99.90
20459;DHT22;10388;52.314;7.938;2022-12-10T06:21:45;-0.40;99.90
20459;DHT22;10388;52.314;7.938;2022-12-10T06:24:15;-0.40;99.90
20459;DHT22;10388;52.314;7.938;2022-12-10T06:26:46;-0.40;99.90
20459;DHT22;10388;52.314;7.938;2022-12-10T06:29:16;-0.40;99.90
20459;DHT22;10388;52.314;7.938;2022-12-10T06:31:48;-0.40;99.90
20459;DHT22;10388;52.314;7.938;2022-12-10T06:34:18;-0.50;99.90
20459;DHT22;10388;52.314;7.938;2022-12-10T06:36:49;-0.50;99.90
20459;DHT22;10388;52.314;7.938;2022-12-10T06:39:19;-0.50;99.90
20459;DHT22;10388;52.314;7.938;2022-12-10T06:41:50;-0.60;99.90
20459;DHT22;10388;52.314;7.938;2022-12-10T06:44:20;-0.60;99.90
20459;DHT22;10388;52.314;7.938;2022-12-10T06:46:51;-0.60;99.90
20459;DHT22;10388;52.314;7.938;2022-12-10T06:49:21;-0.60;99.90
20459;DHT22;10388;52.314;7.938;2022-12-10T06:51:52;-0.60;99.90
20459;DHT22;10388;52.314;7.938;2022-12-10T06:54:22;-0.70;99.90
20459;DHT22;10388;52.314;7.938;2022-12-10T06:56:53;-0.70;99.90
20459;DHT22;10388;52.314;7.938;2022-12-10T06:59:24;-0.80;99.90
20459;DHT22;10388;52.314;7.938;2022-12-10T07:01:54;-0.80;99.90
20459;DHT22;10388;52.314;7.938;2022-12-10T07:04:25;-0.80;99.90
20459;DHT22;10388;52.314;7.938;2022-12-10T07:06:55;-0.80;99.90
20459;DHT22;10388;52.314;7.938;2022-12-10T07:09:26;-0.90;99.90
20459;DHT22;10388;52.314;7.938;2022-12-10T07:11:56;-0.90;99.90
20459;DHT22;10388;52.314;7.938;2022-12-10T07:14:27;-1.00;99.90
20459;DHT22;10388;52.314;7.938;2022-12-10T07:16:57;-1.00;99.90
20459;DHT22;10388;52.314;7.938;2022-12-10T07:19:28;-1.00;99.90
20459;DHT22;10388;52.314;7.938;2022-12-10T07:21:59;-1.00;99.90
20459;DHT22;10388;52.314;7.938;2022-12-10T07:24:29;-1.00;99.90
20459;DHT22;10388;52.314;7.938;2022-12-10T07:27:00;-1.10;99.90
20459;DHT22;10388;52.314;7.938;2022-12-10T07:29:30;-1.10;99.90
20459;DHT22;10388;52.314;7.938;2022-12-10T07:32:01;-1.10;99.90
20459;DHT22;10388;52.314;7.938;2022-12-10T07:34:32;-1.20;99.90
20459;DHT22;10388;52.314;7.938;2022-12-10T07:37:02;-1.20;99.90
20459;DHT22;10388;52.314;7.938;2022-12-10T07:39:33;-1.20;99.90
20459;DHT22;10388;52.314;7.938;2022-12-10T07:42:04;-1.20;99.90
20459;DHT22;10388;52.314;7.938;2022-12-10T07:44:34;-1.20;99.90
20459;DHT22;10388;52.314;7.938;2022-12-10T07:47:05;-1.30;99.90
20459;DHT22;10388;52.314;7.938;2022-12-10T07:49:35;-1.30;99.90
20459;DHT22;10388;52.314;7.938;2022-12-10T07:52:07;-1.40;99.90
20459;DHT22;10388;52.314;7.938;2022-12-10T07:54:38;-1.40;99.90
20459;DHT22;10388;52.314;7.938;2022-12-10T07:57:08;-1.40;99.90
20459;DHT22;10388;52.314;7.938;2022-12-10T07:59:39;-1.40;99.90
20459;DHT22;10388;52.314;7.938;2022-12-10T08:02:09;-1.50;99.90
20459;DHT22;10388;52.314;7.938;2022-12-10T08:04:40;-1.50;99.90
20459;DHT22;10388;52.314;7.938;2022-12-10T08:07:10;-1.50;99.90
20459;DHT22;10388;52.314;7.938;2022-12-10T08:09:41;-1.50;99.90
20459;DHT22;10388;52.314;7.938;2022-12-10T08:12:12;-1.40;99.90
20459;DHT22;10388;52.314;7.938;2022-12-10T08:14:42;-1.40;99.90
20459;DHT22;10388;52.314;7.938;2022-12-10T08:17:13;-1.40;99.90
20459;DHT22;10388;52.314;7.938;2022-12-10T08:19:43;-1.40;99.90
20459;DHT22;10388;52.314;7.938;2022-12-10T08:22:14;-1.40;99.90
20459;DHT22;10388;52.314;7.938;2022-12-10T08:24:44;-1.50;99.90
20459;DHT22;10388;52.314;7.938;2022-12-10T08:27:15;-1.50;99.90
20459;DHT22;10388;52.314;7.938;2022-12-10T08:29:45;-1.50;99.90
20459;DHT22;10388;52.314;7.938;2022-12-10T08:32:16;-1.50;99.90
20459;DHT22;10388;52.314;7.938;2022-12-10T08:34:46;-1.40;99.90
20459;DHT22;10388;52.314;7.938;2022-12-10T08:37:17;-1.40;99.90
20459;DHT22;10388;52.314;7.938;2022-12-10T08:39:48;-1.40;99.90
20459;DHT22;10388;52.314;7.938;2022-12-10T08:42:18;-1.30;99.90
20459;DHT22;10388;52.314;7.938;2022-12-10T08:44:49;-1.20;99.90
20459;DHT22;10388;52.314;7.938;2022-12-10T08:47:20;-1.20;99.90
20459;DHT22;10388;52.314;7.938;2022-12-10T08:49:51;-1.10;99.90
20459;DHT22;10388;52.314;7.938;2022-12-10T08:52:21;-1.00;99.90
20459;DHT22;10388;52.314;7.938;2022-12-10T08:54:52;-0.90;99.90
20459;DHT22;10388;52.314;7.938;2022-12-10T08:57:22;-0.90;99.90
20459;DHT22;10388;52.314;7.938;2022-12-10T08:59:53;-0.80;99.90
20459;DHT22;10388;52.314;7.938;2022-12-10T09:02:23;-0.70;99.90
20459;DHT22;10388;52.314;7.938;2022-12-10T09:04:55;-0.60;99.90
20459;DHT22;10388;52.314;7.938;2022-12-10T09:07:25;-0.70;99.90
20459;DHT22;10388;52.314;7.938;2022-12-10T09:09:56;-0.60;99.90
20459;DHT22;10388;52.314;7.938;2022-12-10T09:12:27;-0.60;99.90
20459;DHT22;10388;52.314;7.938;2022-12-10T09:14:57;-0.60;99.90
20459;DHT22;10388;52.314;7.938;2022-12-10T09:17:28;-0.50;99.90
20459;DHT22;10388;52.314;7.938;2022-12-10T09:19:58;-0.50;99.90
20459;DHT22;10388;52.314;7.938;2022-12-10T09:22:29;-0.50;99.90
20459;DHT22;10388;52.314;7.938;2022-12-10T09:24:59;-0.50;99.90
20459;DHT22;10388;52.314;7.938;2022-12-10T09:27:30;-0.40;99.90
20459;DHT22;10388;52.314;7.938;2022-12-10T09:30:01;-0.30;99.90
20459;DHT22;10388;52.314;7.938;2022-12-10T09:32:31;-0.30;99.90
20459;DHT22;10388;52.314;7.938;2022-12-10T09:35:05;-0.30;99.90
20459;DHT22;10388;52.314;7.938;2022-12-10T09:37:37;-0.30;99.90
20459;DHT22;10388;52.314;7.938;2022-12-10T09:40:13;-0.20;99.90
20459;DHT22;10388;52.314;7.938;2022-12-10T09:42:53;-0.10;99.90
20459;DHT22;10388;52.314;7.938;2022-12-10T09:46:06;0.00;99.90
20459;DHT22;10388;52.314;7.938;2022-12-10T09:51:36;0.00;99.90
20459;DHT22;10388;52.314;7.938;2022-12-10T09:54:18;0.10;99.90
20459;DHT22;10388;52.314;7.938;2022-12-10T09:56:54;0.10;99.90
20459;DHT22;10388;52.314;7.938;2022-12-10T09:59:46;0.20;99.90
20459;DHT22;10388;52.314;7.938;2022-12-10T10:04:53;0.20;99.90
20459;DHT22;10388;52.314;7.938;2022-12-10T10:07:26;0.20;99.90
20459;DHT22;10388;52.314;7.938;2022-12-10T10:10:05;0.30;99.90
20459;DHT22;10388;52.314;7.938;2022-12-10T10:12:39;0.30;99.90
20459;DHT22;10388;52.314;7.938;2022-12-10T10:15:14;0.40;99.90
20459;DHT22;10388;52.314;7.938;2022-12-10T10:17:46;0.40;99.90
20459;DHT22;10388;52.314;7.938;2022-12-10T10:20:17;0.40;99.90
20459;DHT22;10388;52.314;7.938;2022-12-10T10:22:48;0.50;99.90
20459;DHT22;10388;52.314;7.938;2022-12-10T10:25:19;0.50;99.90
20459;DHT22;10388;52.314;7.938;2022-12-10T10:27:49;0.50;99.90
20459;DHT22;10388;52.314;7.938;2022-12-10T10:30:22;0.70;99.90
20459;DHT22;10388;52.314;7.938;2022-12-10T10:32:55;0.70;99.90
20459;DHT22;10388;52.314;7.938;2022-12-10T10:35:32;0.80;99.90
20459;DHT22;10388;52.314;7.938;2022-12-10T10:38:25;0.80;99.90
20459;DHT22;10388;52.314;7.938;2022-12-10T10:40:59;0.90;99.90
20459;DHT22;10388;52.314;7.938;2022-12-10T10:43:41;0.90;99.90
20459;DHT22;10388;52.314;7.938;2022-12-10T10:46:15;0.90;99.90
20459;DHT22;10388;52.314;7.938;2022-12-10T10:48:46;0.90;99.90
20459;DHT22;10388;52.314;7.938;2022-12-10T10:51:22;1.00;99.90
20459;DHT22;10388;52.314;7.938;2022-12-10T10:53:56;1.00;99.90
20459;DHT22;10388;52.314;7.938;2022-12-10T10:56:31;1.00;99.90
20459;DHT22;10388;52.314;7.938;2022-12-10T10:59:05;1.00;99.90
20459;DHT22;10388;52.314;7.938;2022-12-10T11:01:51;1.10;99.90
20459;DHT22;10388;52.314;7.938;2022-12-10T11:04:30;1.10;99.90
20459;DHT22;10388;52.314;7.938;2022-12-10T11:07:22;1.10;99.90
20459;DHT22;10388;52.314;7.938;2022-12-10T11:09:54;1.10;99.90
20459;DHT22;10388;52.314;7.938;2022-12-10T11:12:33;1.00;99.90
20459;DHT22;10388;52.314;7.938;2022-12-10T11:15:29;1.00;99.90
20459;DHT22;10388;52.314;7.938;2022-12-10T11:18:01;1.10;99.90
20459;DHT22;10388;52.314;7.938;2022-12-10T11:20:34;1.00;99.90
20459;DHT22;10388;52.314;7.938;2022-12-10T11:23:09;1.00;99.90
20459;DHT22;10388;52.314;7.938;2022-12-10T11:25:49;1.00;99.90
20459;DHT22;10388;52.314;7.938;2022-12-10T11:31:48;1.10;99.90
20459;DHT22;10388;52.314;7.938;2022-12-10T11:37:47;1.10;99.90
20459;DHT22;10388;52.314;7.938;2022-12-10T11:40:50;1.20;99.90
20459;DHT22;10388;52.314;7.938;2022-12-10T11:43:42;1.30;99.90
20459;DHT22;10388;52.314;7.938;2022-12-10T11:46:54;1.40;99.90
20459;DHT22;10388;52.314;7.938;2022-12-10T11:49:45;1.40;99.90
20459;DHT22;10388;52.314;7.938;2022-12-10T11:55:32;1.40;99.90
20459;DHT22;10388;52.314;7.938;2022-12-10T11:58:45;1.40;99.90
20459;DHT22;10388;52.314;7.938;2022-12-10T12:04:27;1.60;99.90
20459;DHT22;10388;52.314;7.938;2022-12-10T12:07:26;1.60;99.90
20459;DHT22;10388;52.314;7.938;2022-12-10T12:15:21;1.60;99.90
20459;DHT22;10388;52.314;7.938;2022-12-10T12:18:43;1.60;99.90
20459;DHT22;10388;52.314;7.938;2022-12-10T12:20:57;1.70;99.90
20459;DHT22;10388;52.314;7.938;2022-12-10T12:26:30;1.80;99.90
20459;DHT22;10388;52.314;7.938;2022-12-10T12:29:18;1.80;99.90
20459;DHT22;10388;52.314;7.938;2022-12-10T12:32:25;1.80;99.90
20459;DHT22;10388;52.314;7.938;2022-12-10T12:35:13;1.70;99.90
20459;DHT22;10388;52.314;7.938;2022-12-10T12:41:04;1.70;99.90
20459;DHT22;10388;52.314;7.938;2022-12-10T12:46:13;1.70;99.90
20459;DHT22;10388;52.314;7.938;2022-12-10T12:49:02;1.70;99.90
20459;DHT22;10388;52.314;7.938;2022-12-10T12:51:39;1.70;99.90
20459;DHT22;10388;52.314;7.938;2022-12-10T12:54:11;1.70;99.90
20459;DHT22;10388;52.314;7.938;2022-12-10T12:59:52;1.70;99.90
20459;DHT22;10388;52.314;7.938;2022-12-10T13:02:59;1.70;99.90
20459;DHT22;10388;52.314;7.938;2022-12-10T13:05:37;1.60;99.90
20459;DHT22;10388;52.314;7.938;2022-12-10T13:08:24;1.60;99.90
20459;DHT22;10388;52.314;7.938;2022-12-10T13:14:11;1.70;99.90
20459;DHT22;10388;52.314;7.938;2022-12-10T13:27:31;1.60;99.90
20459;DHT22;10388;52.314;7.938;2022-12-10T13:33:12;1.50;99.90
20459;DHT22;10388;52.314;7.938;2022-12-10T13:36:04;1.50;99.90
20459;DHT22;10388;52.314;7.938;2022-12-10T13:41:28;1.40;99.90
20459;DHT22;10388;52.314;7.938;2022-12-10T13:47:48;1.40;99.90
20459;DHT22;10388;52.314;7.938;2022-12-10T13:56:13;1.40;99.90
20459;DHT22;10388;52.314;7.938;2022-12-10T13:59:11;1.30;99.90
20459;DHT22;10388;52.314;7.938;2022-12-10T14:07:22;1.40;99.90
20459;DHT22;10388;52.314;7.938;2022-12-10T14:09:55;1.40;99.90
20459;DHT22;10388;52.314;7.938;2022-12-10T14:12:31;1.40;99.90
20459;DHT22;10388;52.314;7.938;2022-12-10T14:15:14;1.30;99.90
20459;DHT22;10388;52.314;7.938;2022-12-10T14:17:46;1.30;99.90
20459;DHT22;10388;52.314;7.938;2022-12-10T14:20:20;1.30;99.90
20459;DHT22;10388;52.314;7.938;2022-12-10T14:22:54;1.30;99.90
20459;DHT22;10388;52.314;7.938;2022-12-10T14:25:48;1.20;99.90
20459;DHT22;10388;52.314;7.938;2022-12-10T14:28:18;1.20;99.90
20459;DHT22;10388;52.314;7.938;2022-12-10T14:30:50;1.20;99.90
20459;DHT22;10388;52.314;7.938;2022-12-10T14:33:22;1.20;99.90
20459;DHT22;10388;52.314;7.938;2022-12-10T14:35:54;1.20;99.90
20459;DHT22;10388;52.314;7.938;2022-12-10T14:38:30;1.10;99.90
20459;DHT22;10388;52.314;7.938;2022-12-10T14:41:02;1.10;99.90
20459;DHT22;10388;52.314;7.938;2022-12-10T14:43:38;1.10;99.90
20459;DHT22;10388;52.314;7.938;2022-12-10T14:46:27;1.10;99.90
20459;DHT22;10388;52.314;7.938;2022-12-10T14:48:58;1.10;99.90
20459;DHT22;10388;52.314;7.938;2022-12-10T14:51:33;1.10;99.90
20459;DHT22;10388;52.314;7.938;2022-12-10T14:54:04;1.10;99.90
20459;DHT22;10388;52.314;7.938;2022-12-10T14:56:37;1.10;99.90
20459;DHT22;10388;52.314;7.938;2022-12-10T14:59:15;1.10;99.90
20459;DHT22;10388;52.314;7.938;2022-12-10T15:01:51;1.10;99.90
20459;DHT22;10388;52.314;7.938;2022-12-10T15:04:25;1.00;99.90
20459;DHT22;10388;52.314;7.938;2022-12-10T15:07:00;1.00;99.90
20459;DHT22;10388;52.314;7.938;2022-12-10T15:09:32;1.00;99.90
20459;DHT22;10388;52.314;7.938;2022-12-10T15:12:02;1.00;99.90
20459;DHT22;10388;52.314;7.938;2022-12-10T15:14:33;0.90;99.90
20459;DHT22;10388;52.314;7.938;2022-12-10T15:17:36;1.00;99.90
20459;DHT22;10388;52.314;7.938;2022-12-10T15:20:27;1.00;99.90
20459;DHT22;10388;52.314;7.938;2022-12-10T15:23:23;1.00;99.90
20459;DHT22;10388;52.314;7.938;2022-12-10T15:28:51;0.90;99.90
20459;DHT22;10388;52.314;7.938;2022-12-10T15:33:58;0.90;99.90
20459;DHT22;10388;52.314;7.938;2022-12-10T15:36:37;0.90;99.90
20459;DHT22;10388;52.314;7.938;2022-12-10T15:41:48;0.80;99.90
20459;DHT22;10388;52.314;7.938;2022-12-10T15:47:09;0.80;99.90
20459;DHT22;10388;52.314;7.938;2022-12-10T15:49:40;0.80;99.90
20459;DHT22;10388;52.314;7.938;2022-12-10T15:52:25;0.80;99.90
20459;DHT22;10388;52.314;7.938;2022-12-10T15:54:57;0.80;99.90
20459;DHT22;10388;52.314;7.938;2022-12-10T15:57:36;0.80;99.90
20459;DHT22;10388;52.314;7.938;2022-12-10T16:00:19;0.90;99.90
20459;DHT22;10388;52.314;7.938;2022-12-10T16:03:04;0.80;99.90
20459;DHT22;10388;52.314;7.938;2022-12-10T16:05:36;0.80;99.90
20459;DHT22;10388;52.314;7.938;2022-12-10T16:08:21;0.90;99.90
20459;DHT22;10388;52.314;7.938;2022-12-10T16:10:54;0.90;99.90
20459;DHT22;10388;52.314;7.938;2022-12-10T16:13:28;0.90;99.90
20459;DHT22;10388;52.314;7.938;2022-12-10T16:16:07;0.90;99.90
20459;DHT22;10388;52.314;7.938;2022-12-10T16:18:39;0.80;99.90
20459;DHT22;10388;52.314;7.938;2022-12-10T16:21:10;0.80;99.90
20459;DHT22;10388;52.314;7.938;2022-12-10T16:23:40;0.80;99.90
20459;DHT22;10388;52.314;7.938;2022-12-10T16:26:16;0.90;99.90
20459;DHT22;10388;52.314;7.938;2022-12-10T16:28:48;0.90;99.90
20459;DHT22;10388;52.314;7.938;2022-12-10T16:31:21;0.90;99.90
20459;DHT22;10388;52.314;7.938;2022-12-10T16:33:51;0.80;99.90
20459;DHT22;10388;52.314;7.938;2022-12-10T16:36:22;0.80;99.90
20459;DHT22;10388;52.314;7.938;2022-12-10T16:38:53;0.80;99.90
20459;DHT22;10388;52.314;7.938;2022-12-10T16:41:24;0.80;99.90
20459;DHT22;10388;52.314;7.938;2022-12-10T16:43:55;0.80;99.90
20459;DHT22;10388;52.314;7.938;2022-12-10T16:46:25;0.80;99.90
20459;DHT22;10388;52.314;7.938;2022-12-10T16:48:56;0.80;99.90
20459;DHT22;10388;52.314;7.938;2022-12-10T16:51:28;0.80;99.90
20459;DHT22;10388;52.314;7.938;2022-12-10T16:53:59;0.70;99.90
20459;DHT22;10388;52.314;7.938;2022-12-10T16:56:30;0.70;99.90
20459;DHT22;10388;52.314;7.938;2022-12-10T16:59:01;0.60;99.90
20459;DHT22;10388;52.314;7.938;2022-12-10T17:01:31;0.60;99.90
20459;DHT22;10388;52.314;7.938;2022-12-10T17:04:02;0.60;99.90
20459;DHT22;10388;52.314;7.938;2022-12-10T17:06:33;0.50;99.90
20459;DHT22;10388;52.314;7.938;2022-12-10T17:09:04;0.50;99.90
20459;DHT22;10388;52.314;7.938;2022-12-10T17:11:40;0.50;99.90
20459;DHT22;10388;52.314;7.938;2022-12-10T17:14:29;0.50;99.90
20459;DHT22;10388;52.314;7.938;2022-12-10T17:17:00;0.50;99.90
20459;DHT22;10388;52.314;7.938;2022-12-10T17:19:36;0.50;99.90
20459;DHT22;10388;52.314;7.938;2022-12-10T17:22:08;0.50;99.90
20459;DHT22;10388;52.314;7.938;2022-12-10T17:24:38;0.50;99.90
20459;DHT22;10388;52.314;7.938;2022-12-10T17:27:15;0.50;99.90
20459;DHT22;10388;52.314;7.938;2022-12-10T17:29:47;0.50;99.90
20459;DHT22;10388;52.314;7.938;2022-12-10T17:32:23;0.50;99.90
20459;DHT22;10388;52.314;7.938;2022-12-10T17:34:54;0.50;99.90
20459;DHT22;10388;52.314;7.938;2022-12-10T17:37:25;0.50;99.90
20459;DHT22;10388;52.314;7.938;2022-12-10T17:39:58;0.50;99.90
20459;DHT22;10388;52.314;7.938;2022-12-10T17:42:29;0.50;99.90
20459;DHT22;10388;52.314;7.938;2022-12-10T17:45:00;0.50;99.90
20459;DHT22;10388;52.314;7.938;2022-12-10T17:47:31;0.50;99.90
20459;DHT22;10388;52.314;7.938;2022-12-10T17:50:03;0.50;99.90
20459;DHT22;10388;52.314;7.938;2022-12-10T17:52:35;0.50;99.90
20459;DHT22;10388;52.314;7.938;2022-12-10T17:55:06;0.50;99.90
20459;DHT22;10388;52.314;7.938;2022-12-10T17:57:36;0.50;99.90
20459;DHT22;10388;52.314;7.938;2022-12-10T18:00:13;0.40;99.90
20459;DHT22;10388;52.314;7.938;2022-12-10T18:02:44;0.40;99.90
20459;DHT22;10388;52.314;7.938;2022-12-10T18:05:15;0.40;99.90
20459;DHT22;10388;52.314;7.938;2022-12-10T18:07:45;0.40;99.90
20459;DHT22;10388;52.314;7.938;2022-12-10T18:10:26;0.50;99.90
20459;DHT22;10388;52.314;7.938;2022-12-10T18:12:57;0.40;99.90
20459;DHT22;10388;52.314;7.938;2022-12-10T18:15:29;0.50;99.90
20459;DHT22;10388;52.314;7.938;2022-12-10T18:18:00;0.50;99.90
20459;DHT22;10388;52.314;7.938;2022-12-10T18:20:37;0.40;99.90
20459;DHT22;10388;52.314;7.938;2022-12-10T18:23:10;0.50;99.90
20459;DHT22;10388;52.314;7.938;2022-12-10T18:25:43;0.50;99.90
20459;DHT22;10388;52.314;7.938;2022-12-10T18:30:55;0.50;99.90
20459;DHT22;10388;52.314;7.938;2022-12-10T18:33:25;0.50;99.90
20459;DHT22;10388;52.314;7.938;2022-12-10T18:35:56;0.50;99.90
20459;DHT22;10388;52.314;7.938;2022-12-10T18:38:26;0.50;99.90
20459;DHT22;10388;52.314;7.938;2022-12-10T18:40:57;0.50;99.90
20459;DHT22;10388;52.314;7.938;2022-12-10T18:43:28;0.50;99.90
20459;DHT22;10388;52.314;7.938;2022-12-10T18:45:58;0.50;99.90
20459;DHT22;10388;52.314;7.938;2022-12-10T18:48:29;0.50;99.90
20459;DHT22;10388;52.314;7.938;2022-12-10T18:50:59;0.50;99.90
20459;DHT22;10388;52.314;7.938;2022-12-10T18:53:30;0.40;99.90
20459;DHT22;10388;52.314;7.938;2022-12-10T18:56:01;0.50;99.90
20459;DHT22;10388;52.314;7.938;2022-12-10T18:58:31;0.40;99.90
20459;DHT22;10388;52.314;7.938;2022-12-10T19:01:03;0.40;99.90
20459;DHT22;10388;52.314;7.938;2022-12-10T19:03:34;0.40;99.90
20459;DHT22;10388;52.314;7.938;2022-12-10T19:06:08;0.40;99.90
20459;DHT22;10388;52.314;7.938;2022-12-10T19:08:40;0.40;99.90
20459;DHT22;10388;52.314;7.938;2022-12-10T19:11:11;0.40;99.90
20459;DHT22;10388;52.314;7.938;2022-12-10T19:13:43;0.40;99.90
20459;DHT22;10388;52.314;7.938;2022-12-10T19:16:18;0.50;99.90
20459;DHT22;10388;52.314;7.938;2022-12-10T19:18:52;0.40;99.90
20459;DHT22;10388;52.314;7.938;2022-12-10T19:21:22;0.50;99.90
20459;DHT22;10388;52.314;7.938;2022-12-10T19:23:53;0.50;99.90
20459;DHT22;10388;52.314;7.938;2022-12-10T19:26:30;0.50;99.90
20459;DHT22;10388;52.314;7.938;2022-12-10T19:29:12;0.50;99.90
20459;DHT22;10388;52.314;7.938;2022-12-10T19:31:43;0.50;99.90
20459;DHT22;10388;52.314;7.938;2022-12-10T19:34:19;0.40;99.90
20459;DHT22;10388;52.314;7.938;2022-12-10T19:36:50;0.40;99.90
20459;DHT22;10388;52.314;7.938;2022-12-10T19:39:23;0.40;99.90
20459;DHT22;10388;52.314;7.938;2022-12-10T19:41:54;0.40;99.90
20459;DHT22;10388;52.314;7.938;2022-12-10T19:44:25;0.40;99.90
20459;DHT22;10388;52.314;7.938;2022-12-10T19:46:55;0.50;99.90
20459;DHT22;10388;52.314;7.938;2022-12-10T19:49:26;0.40;99.90
20459;DHT22;10388;52.314;7.938;2022-12-10T19:51:56;0.40;99.90
20459;DHT22;10388;52.314;7.938;2022-12-10T19:54:27;0.40;99.90
20459;DHT22;10388;52.314;7.938;2022-12-10T19:56:57;0.40;99.90
20459;DHT22;10388;52.314;7.938;2022-12-10T19:59:28;0.40;99.90
20459;DHT22;10388;52.314;7.938;2022-12-10T20:01:58;0.40;99.90
20459;DHT22;10388;52.314;7.938;2022-12-10T20:04:29;0.40;99.90
20459;DHT22;10388;52.314;7.938;2022-12-10T20:06:59;0.40;99.90
20459;DHT22;10388;52.314;7.938;2022-12-10T20:09:30;0.40;99.90
20459;DHT22;10388;52.314;7.938;2022-12-10T20:12:00;0.30;99.90
20459;DHT22;10388;52.314;7.938;2022-12-10T20:14:31;0.40;99.90
20459;DHT22;10388;52.314;7.938;2022-12-10T20:17:02;0.40;99.90
20459;DHT22;10388;52.314;7.938;2022-12-10T20:19:32;0.40;99.90
20459;DHT22;10388;52.314;7.938;2022-12-10T20:22:03;0.40;99.90
20459;DHT22;10388;52.314;7.938;2022-12-10T20:24:35;0.40;99.90
20459;DHT22;10388;52.314;7.938;2022-12-10T20:27:05;0.40;99.90
20459;DHT22;10388;52.314;7.938;2022-12-10T20:29:36;0.40;99.90
20459;DHT22;10388;52.314;7.938;2022-12-10T20:32:07;0.40;99.90
20459;DHT22;10388;52.314;7.938;2022-12-10T20:34:38;0.40;99.90
20459;DHT22;10388;52.314;7.938;2022-12-10T20:37:10;0.40;99.90
20459;DHT22;10388;52.314;7.938;2022-12-10T20:39:42;0.40;99.90
20459;DHT22;10388;52.314;7.938;2022-12-10T20:42:13;0.30;99.90
20459;DHT22;10388;52.314;7.938;2022-12-10T20:44:43;0.40;99.90
20459;DHT22;10388;52.314;7.938;2022-12-10T20:47:14;0.40;99.90
20459;DHT22;10388;52.314;7.938;2022-12-10T20:49:44;0.30;99.90
20459;DHT22;10388;52.314;7.938;2022-12-10T20:52:15;0.30;99.90